Detall de PIREP

Printer-friendly versionPDF version

[2015/05/03 06:47:00]
Flight IATA:CT0001
Pilot Number:041
Company ICAO:CAT
Aircraft Type:BE20/A
PAX:4
Departing Airport: LEGE
Destination Airport: LELC
Alternate Airport:LEVC
Online: VATSIM
Route:MAMUK H110 SEROX A34 ALT
Flight Level:FL150
No Slew and time accel
No pause
Crash detect
Detect pilot in Cockpit between each 30 and 45 minutes
06:47 Zero fuel Weight: 8737 Lbs, Fuel Weight: 3677 Lbs
06:47 VATSIM:LEGE 030630Z 00000KT 9999 SCT080 16/15 Q1009
06:47 VATSIM:LELC 030600Z 28002KT CAVOK 17/11 Q1011 NOSIG
06:47 VOICE CATALONIAN
06:52 Parking Brakes off
06:56 Take-off
06:56 Take off Weight: 12380 Lbs
06:56 Wind: 284º @ 002 Knots Heading: 013º
06:56 POS N41º 54´ 18´´ E002º 45´ 43´´
06:56 Flaps:1 at 128 Knots
06:56 Gear Up: 128 Knots
06:56 Flaps:0 at 129 Knots
07:09 TOC
07:09 Fuel Weight: 3472 Lb
07:11 Wind:278º@034 Knots Heading: 262º Ground Speed: 204 Knots Altitude 14911 ft
07:26 Wind:272º@032 Knots Heading: 250º Ground Speed: 224 Knots Altitude 14908 ft
08:16 TOD
08:16 Fuel Weight: 2745 Lb
08:26 Flaps:1 at 170 Knots
08:27 Gear Down: 140 Knots
08:29 Flaps:2 at 145 Knots
08:32 TouchDown:Rate -197 ft/min Speed: 104 Knots
08:32 Flaps:0 at 87 Knots
08:32 VATSIM:LELC 030800Z VRB02KT CAVOK 25/12 Q1011 NOSIG
08:32 Land
08:32 Wind:230º@002 Knots
08:32 Heading: 207º
08:32 Flight Duration: 01:36
08:32 Landing Weight: 11384 Lbs
08:32 POS N37º 46´ 29´´ W000º 48´ 44´´
08:34 Parking brakes on
08:34 Block to Block Duration: 01:42
08:34 Final Fuel: 2641 Lbls
08:34 Spent Fuel: 1036 Lbls
08:34 Flight Length: 128 NM
08:34 TOD Land Length: 00 NM

Exportar CSV

Powered by Drupal - Modified by Danger4k